Time;durP1;ratioP1;P1;durP2;ratioP2;P2;SDS_P1;SDS_P2;PMS_P1;PMS_P2;Temp;Humidity;BMP_temperature;BMP_pressure;BME280_temperature;BME280_humidity;BME280_pressure;Samples;Min_cycle;Max_cycle;Signal;HPM_P1;HPM_P2
2021/03/08 00:01:15;;;;;;;;;;;;;;;;;;4969081;28;19926;-64
2021/03/08 00:03:43;;;;;;;;;;;;;;;;;;4971466;28;19937;-64
2021/03/08 00:06:10;;;;;;;;;;;;;;;;;;4974846;28;19937;-64
2021/03/08 00:08:37;;;;;;;;;;;;;;;;;;4972102;28;19930;-64
2021/03/08 00:11:04;;;;;;;;;;;;;;;;;;4969555;28;19930;-64
2021/03/08 00:13:32;;;;;;;;;;;;;;;;;;4970841;28;19965;-64
2021/03/08 00:15:59;;;;;;;;;;;;;;;;;;4970789;28;19988;-64
2021/03/08 00:18:26;;;;;;;;;;;;;;;;;;4969216;28;19933;-64
2021/03/08 00:20:54;;;;;;;;;;;;;;;;;;4970557;28;20294;-65
2021/03/08 00:23:21;;;;;;;;;;;;;;;;;;4968683;28;20004;-64
2021/03/08 00:25:49;;;;;;;;;;;;;;;;;;4970209;28;20017;-63
2021/03/08 00:28:16;;;;;;;;;;;;;;;;;;4971385;28;20196;-64
2021/03/08 00:30:43;;;;;;;;;;;;;;;;;;4965549;28;20035;-65
2021/03/08 00:33:10;;;;;;;;;;;;;;;;;;4971511;28;20251;-64
2021/03/08 00:35:37;;;;;;;;;;;;;;;;;;4968067;28;19953;-64
2021/03/08 00:38:05;;;;;;;;;;;;;;;;;;4966039;28;20000;-63
2021/03/08 00:40:33;;;;;;;;;;;;;;;;;;4970780;28;20025;-66
2021/03/08 00:43:00;;;;;;;;;;;;;;;;;;4970951;28;19969;-64
2021/03/08 00:45:27;;;;;;;;;;;;;;;;;;4971611;28;20455;-64
2021/03/08 00:47:54;;;;;;;;;;;;;;;;;;4969342;28;19930;-64
2021/03/08 00:50:22;;;;;;;;;;;;;;;;;;4970120;28;19937;-65
2021/03/08 00:52:49;;;;;;;;;;;;;;;;;;4968889;28;19938;-66
2021/03/08 00:55:16;;;;;;;;;;;;;;;;;;4969737;28;19965;-66
2021/03/08 00:57:43;;;;;;;;;;;;;;;;;;4970794;28;19930;-64
2021/03/08 01:00:10;;;;;;;;;;;;;;;;;;4969883;28;20354;-64
2021/03/08 01:02:37;;;;;;;;;;;;;;;;;;4961333;28;20195;-64
2021/03/08 01:05:05;;;;;;;;;;;;;;;;;;4962995;28;20370;-64
2021/03/08 01:07:32;;;;;;;;;;;;;;;;;;4961928;28;19957;-66
2021/03/08 01:09:59;;;;;;;;;;;;;;;;;;4970124;28;19930;-65
2021/03/08 01:12:26;;;;;;;;;;;;;;;;;;4971301;28;19958;-64
2021/03/08 01:14:53;;;;;;;;;;;;;;;;;;4967323;28;19961;-64
2021/03/08 01:17:20;;;;;;;;;;;;;;;;;;4968464;28;20887;-64
2021/03/08 01:19:48;;;;;;;;;;;;;;;;;;4969659;28;20991;-65
2021/03/08 01:22:15;;;;;;;;;;;;;;;;;;4967586;28;20020;-67
2021/03/08 01:24:42;;;;;;;;;;;;;;;;;;4968327;28;19953;-64
2021/03/08 01:27:09;;;;;;;;;;;;;;;;;;4969400;28;20457;-63
2021/03/08 01:29:37;;;;;;;;;;;;;;;;;;4969479;28;20407;-64
2021/03/08 01:32:04;;;;;;;;;;;;;;;;;;4967822;28;20048;-66
2021/03/08 01:34:31;;;;;;;;;;;;;;;;;;4969440;28;19926;-65
2021/03/08 01:36:58;;;;;;;;;;;;;;;;;;4969472;28;19953;-64
2021/03/08 01:39:26;;;;;;;;;;;;;;;;;;4969548;28;20013;-65
2021/03/08 01:41:53;;;;;;;;;;;;;;;;;;4970686;28;19949;-64
2021/03/08 01:44:20;;;;;;;;;;;;;;;;;;4970236;28;19930;-64
2021/03/08 01:46:48;;;;;;;;;;;;;;;;;;4969431;28;19969;-64
2021/03/08 01:49:15;;;;;;;;;;;;;;;;;;4970389;28;19930;-64
2021/03/08 01:51:42;;;;;;;;;;;;;;;;;;4969944;28;20242;-64
2021/03/08 01:54:09;;;;;;;;;;;;;;;;;;4967662;28;20048;-64
2021/03/08 01:56:36;;;;;;;;;;;;;;;;;;4969900;28;19930;-64
2021/03/08 01:59:03;;;;;;;;;;;;;;;;;;4969206;28;20442;-65
2021/03/08 02:01:31;;;;;;;;;;;;;;;;;;4959357;28;20020;-65
2021/03/08 02:04:08;;;;;;;;;;;;;;;;;;4950245;28;20026;-64
2021/03/08 02:06:36;;;;;;;;;;;;;;;;;;4944178;28;20061;-65
2021/03/08 02:09:03;;;;;;;;;;;;;;;;;;4955092;28;19930;-68
2021/03/08 02:11:30;;;;;;;;;;;;;;;;;;4949654;28;19930;-70
2021/03/08 02:13:57;;;;;;;;;;;;;;;;;;4950576;29;19931;-68
2021/03/08 02:16:24;;;;;;;;;;;;;;;;;;4947985;28;20025;-64
2021/03/08 02:18:52;;;;;;;;;;;;;;;;;;4947509;28;20049;-66
2021/03/08 02:21:19;;;;;;;;;;;;;;;;;;4945991;28;20424;-66
2021/03/08 02:23:46;;;;;;;;;;;;;;;;;;4948988;28;20009;-65
2021/03/08 02:26:13;;;;;;;;;;;;;;;;;;4951340;28;19926;-64
2021/03/08 02:28:40;;;;;;;;;;;;;;;;;;4947591;28;20005;-67
2021/03/08 02:31:07;;;;;;;;;;;;;;;;;;4950085;28;20285;-66
2021/03/08 02:33:34;;;;;;;;;;;;;;;;;;4949734;28;19973;-68
2021/03/08 02:36:02;;;;;;;;;;;;;;;;;;4950264;28;19937;-66
2021/03/08 02:38:29;;;;;;;;;;;;;;;;;;4949341;28;20521;-64
2021/03/08 02:40:56;;;;;;;;;;;;;;;;;;4953305;28;20045;-64
2021/03/08 02:43:23;;;;;;;;;;;;;;;;;;4950535;28;19949;-64
2021/03/08 02:45:51;;;;;;;;;;;;;;;;;;4948447;28;20339;-67
2021/03/08 02:48:18;;;;;;;;;;;;;;;;;;4946453;28;20239;-67
2021/03/08 02:50:45;;;;;;;;;;;;;;;;;;4949641;28;20012;-65
2021/03/08 02:53:12;;;;;;;;;;;;;;;;;;4943327;28;20009;-67
2021/03/08 02:55:39;;;;;;;;;;;;;;;;;;4949945;29;19926;-69
2021/03/08 02:58:06;;;;;;;;;;;;;;;;;;4948249;28;20017;-66
2021/03/08 03:00:33;;;;;;;;;;;;;;;;;;4947327;28;19937;-68
2021/03/08 03:03:01;;;;;;;;;;;;;;;;;;4949634;29;19930;-65
2021/03/08 03:05:28;;;;;;;;;;;;;;;;;;4950094;28;19936;-65
2021/03/08 03:07:55;;;;;;;;;;;;;;;;;;4939694;28;20412;-68
2021/03/08 03:10:27;;;;;;;;;;;;;;;;;;4940100;28;19940;-66
2021/03/08 03:12:54;;;;;;;;;;;;;;;;;;4949685;29;19934;-69
2021/03/08 03:15:21;;;;;;;;;;;;;;;;;;4949464;28;19930;-66
2021/03/08 03:17:48;;;;;;;;;;;;;;;;;;4949807;28;19930;-67
2021/03/08 03:20:15;;;;;;;;;;;;;;;;;;4948969;28;19938;-68
2021/03/08 03:22:42;;;;;;;;;;;;;;;;;;4928549;29;19927;-68
2021/03/08 03:25:09;;;;;;;;;;;;;;;;;;4947686;29;19926;-66
2021/03/08 03:27:36;;;;;;;;;;;;;;;;;;4938391;29;19945;-65
2021/03/08 03:30:04;;;;;;;;;;;;;;;;;;4947553;28;20049;-67
2021/03/08 03:32:31;;;;;;;;;;;;;;;;;;4948841;28;19931;-66
2021/03/08 03:34:58;;;;;;;;;;;;;;;;;;4949526;28;19971;-66
2021/03/08 03:37:25;;;;;;;;;;;;;;;;;;4945855;28;19931;-67
2021/03/08 03:39:52;;;;;;;;;;;;;;;;;;4949085;29;20391;-66
2021/03/08 03:42:20;;;;;;;;;;;;;;;;;;4948516;28;19930;-68
2021/03/08 03:44:47;;;;;;;;;;;;;;;;;;4949264;29;20014;-66
2021/03/08 03:47:14;;;;;;;;;;;;;;;;;;4948068;28;20036;-68
2021/03/08 03:49:41;;;;;;;;;;;;;;;;;;4948083;29;20339;-70
2021/03/08 03:52:08;;;;;;;;;;;;;;;;;;4947100;28;19981;-65
2021/03/08 03:54:35;;;;;;;;;;;;;;;;;;4949070;28;19982;-66
2021/03/08 03:57:02;;;;;;;;;;;;;;;;;;4948140;28;19974;-70
2021/03/08 03:59:29;;;;;;;;;;;;;;;;;;4948723;28;20028;-66
2021/03/08 04:01:56;;;;;;;;;;;;;;;;;;4942695;28;20020;-66
2021/03/08 04:04:24;;;;;;;;;;;;;;;;;;4950163;29;20313;-66
2021/03/08 04:06:51;;;;;;;;;;;;;;;;;;4945082;29;20025;-67
2021/03/08 04:09:18;;;;;;;;;;;;;;;;;;4945373;29;19941;-70
2021/03/08 04:11:45;;;;;;;;;;;;;;;;;;4949221;29;20044;-67
2021/03/08 04:14:12;;;;;;;;;;;;;;;;;;4948603;29;19940;-68
2021/03/08 04:16:39;;;;;;;;;;;;;;;;;;4948352;29;20394;-66
2021/03/08 04:19:06;;;;;;;;;;;;;;;;;;4946779;29;19934;-65
2021/03/08 04:21:34;;;;;;;;;;;;;;;;;;4943620;29;19961;-71
2021/03/08 04:24:01;;;;;;;;;;;;;;;;;;4948287;29;19931;-68
2021/03/08 04:26:28;;;;;;;;;;;;;;;;;;4947784;28;20075;-66
2021/03/08 04:28:55;;;;;;;;;;;;;;;;;;4947868;28;19982;-69
2021/03/08 04:31:22;;;;;;;;;;;;;;;;;;4947898;28;20408;-68
2021/03/08 04:33:49;;;;;;;;;;;;;;;;;;4952679;29;19927;-66
2021/03/08 04:36:17;;;;;;;;;;;;;;;;;;4948325;28;19974;-66
2021/03/08 04:38:44;;;;;;;;;;;;;;;;;;4956986;28;20391;-68
2021/03/08 04:41:11;;;;;;;;;;;;;;;;;;4956747;28;20383;-66
2021/03/08 04:43:38;;;;;;;;;;;;;;;;;;4945406;29;19930;-67
2021/03/08 04:46:05;;;;;;;;;;;;;;;;;;4951822;29;20057;-67
2021/03/08 04:48:33;;;;;;;;;;;;;;;;;;4942783;29;19942;-69
2021/03/08 04:51:00;;;;;;;;;;;;;;;;;;4951187;29;19927;-67
2021/03/08 04:53:27;;;;;;;;;;;;;;;;;;4951480;29;19934;-71
2021/03/08 04:55:54;;;;;;;;;;;;;;;;;;4949128;29;20422;-66
2021/03/08 04:58:21;;;;;;;;;;;;;;;;;;4951056;28;20433;-66
2021/03/08 05:00:48;;;;;;;;;;;;;;;;;;4950012;29;20038;-65
2021/03/08 05:03:16;;;;;;;;;;;;;;;;;;4952031;29;20017;-67
2021/03/08 05:05:43;;;;;;;;;;;;;;;;;;4945383;28;19937;-68
2021/03/08 05:08:10;;;;;;;;;;;;;;;;;;4940590;29;20311;-71
2021/03/08 05:10:37;;;;;;;;;;;;;;;;;;4948680;29;19976;-70
2021/03/08 05:13:04;;;;;;;;;;;;;;;;;;4951578;29;19931;-69
2021/03/08 05:15:31;;;;;;;;;;;;;;;;;;4954111;28;20017;-69
2021/03/08 05:17:59;;;;;;;;;;;;;;;;;;4955475;28;20473;-68
2021/03/08 05:20:26;;;;;;;;;;;;;;;;;;4950544;29;19934;-67
2021/03/08 05:22:56;;;;;;;;;;;;;;;;;;4950264;29;19958;-65
2021/03/08 05:25:24;;;;;;;;;;;;;;;;;;4951729;29;20445;-65
2021/03/08 05:27:51;;;;;;;;;;;;;;;;;;4951014;29;19930;-66
2021/03/08 05:30:18;;;;;;;;;;;;;;;;;;4951233;28;20151;-66
2021/03/08 05:33:05;;;;;;;;;;;;;;;;;;4950818;28;20378;-67
2021/03/08 05:35:32;;;;;;;;;;;;;;;;;;4951185;28;19949;-69
2021/03/08 05:37:59;;;;;;;;;;;;;;;;;;4957458;28;19931;-66
2021/03/08 05:40:26;;;;;;;;;;;;;;;;;;4951404;29;20437;-66
2021/03/08 05:42:53;;;;;;;;;;;;;;;;;;4950048;28;20021;-66
2021/03/08 05:45:21;;;;;;;;;;;;;;;;;;4950513;28;20037;-66
2021/03/08 05:47:48;;;;;;;;;;;;;;;;;;4950141;29;20330;-66
2021/03/08 05:50:15;;;;;;;;;;;;;;;;;;4951026;29;19926;-65
2021/03/08 05:52:42;;;;;;;;;;;;;;;;;;4949533;28;20437;-64
2021/03/08 05:55:10;;;;;;;;;;;;;;;;;;4951094;29;20013;-65
2021/03/08 05:57:37;;;;;;;;;;;;;;;;;;4950891;29;19927;-64
2021/03/08 06:00:04;;;;;;;;;;;;;;;;;;4950911;29;19931;-69
2021/03/08 06:02:31;;;;;;;;;;;;;;;;;;4950620;28;20025;-66
2021/03/08 06:04:58;;;;;;;;;;;;;;;;;;4946486;28;19930;-70
2021/03/08 06:07:25;;;;;;;;;;;;;;;;;;4947867;29;20024;-69
2021/03/08 06:09:53;;;;;;;;;;;;;;;;;;4945907;28;20671;-66
2021/03/08 06:12:20;;;;;;;;;;;;;;;;;;4946014;29;20009;-67
2021/03/08 06:14:47;;;;;;;;;;;;;;;;;;4946130;29;20017;-67
2021/03/08 06:17:14;;;;;;;;;;;;;;;;;;4944803;29;20528;-65
2021/03/08 06:19:41;;;;;;;;;;;;;;;;;;4942036;28;19946;-67
2021/03/08 06:22:08;;;;;;;;;;;;;;;;;;4946941;29;20014;-65
2021/03/08 06:24:35;;;;;;;;;;;;;;;;;;4946414;29;20192;-64
2021/03/08 06:27:02;;;;;;;;;;;;;;;;;;4946469;29;19930;-67
2021/03/08 06:29:30;;;;;;;;;;;;;;;;;;4946184;29;20009;-65
2021/03/08 06:31:57;;;;;;;;;;;;;;;;;;4945762;29;19937;-65
2021/03/08 06:34:25;;;;;;;;;;;;;;;;;;4944953;28;19988;-67
2021/03/08 06:36:52;;;;;;;;;;;;;;;;;;4949463;28;19933;-68
2021/03/08 06:39:19;;;;;;;;;;;;;;;;;;4948649;28;20297;-66
2021/03/08 06:41:46;;;;;;;;;;;;;;;;;;4945556;28;20449;-66
2021/03/08 06:44:13;;;;;;;;;;;;;;;;;;4941559;29;19954;-66
2021/03/08 06:46:40;;;;;;;;;;;;;;;;;;4947398;29;20001;-66
2021/03/08 06:49:08;;;;;;;;;;;;;;;;;;4944511;29;19927;-65
2021/03/08 06:51:35;;;;;;;;;;;;;;;;;;4946698;29;20005;-66
2021/03/08 06:54:02;;;;;;;;;;;;;;;;;;4946503;28;20330;-67
2021/03/08 06:56:30;;;;;;;;;;;;;;;;;;4947416;28;19985;-64
2021/03/08 06:58:57;;;;;;;;;;;;;;;;;;4946770;28;20016;-65
2021/03/08 07:01:24;;;;;;;;;;;;;;;;;;4945602;28;20509;-65
2021/03/08 07:04:08;;;;;;;;;;;;;;;;;;4944639;29;19985;-65
2021/03/08 07:06:35;;;;;;;;;;;;;;;;;;4947365;29;20033;-65
2021/03/08 07:09:02;;;;;;;;;;;;;;;;;;4936007;28;19938;-66
2021/03/08 07:11:30;;;;;;;;;;;;;;;;;;4941479;29;20453;-65
2021/03/08 07:13:57;;;;;;;;;;;;;;;;;;4943429;28;19934;-66
2021/03/08 07:16:24;;;;;;;;;;;;;;;;;;4943185;29;19973;-65
2021/03/08 07:18:52;;;;;;;;;;;;;;;;;;4944785;29;19934;-65
2021/03/08 07:21:19;;;;;;;;;;;;;;;;;;4946060;29;20053;-65
2021/03/08 07:23:47;;;;;;;;;;;;;;;;;;4944305;28;19984;-66
2021/03/08 07:26:14;;;;;;;;;;;;;;;;;;4943628;29;19931;-65
2021/03/08 07:28:41;;;;;;;;;;;;;;;;;;4944064;28;19973;-66
2021/03/08 07:31:08;;;;;;;;;;;;;;;;;;4944622;29;19934;-67
2021/03/08 07:33:36;;;;;;;;;;;;;;;;;;4946272;29;19954;-65
2021/03/08 07:36:03;;;;;;;;;;;;;;;;;;4946435;29;19937;-67
2021/03/08 07:38:31;;;;;;;;;;;;;;;;;;4945954;29;19938;-66
2021/03/08 07:40:58;;;;;;;;;;;;;;;;;;4946627;29;20034;-65
2021/03/08 07:43:26;;;;;;;;;;;;;;;;;;4946402;29;19930;-66
2021/03/08 07:45:53;;;;;;;;;;;;;;;;;;4946536;29;19930;-65
2021/03/08 07:48:20;;;;;;;;;;;;;;;;;;4937187;28;20363;-66
2021/03/08 07:50:48;;;;;;;;;;;;;;;;;;4943712;29;19973;-65
2021/03/08 07:53:15;;;;;;;;;;;;;;;;;;4943735;29;19941;-65
2021/03/08 07:55:42;;;;;;;;;;;;;;;;;;4945443;29;19986;-66
2021/03/08 07:58:10;;;;;;;;;;;;;;;;;;4943789;29;20347;-65
2021/03/08 08:00:37;;;;;;;;;;;;;;;;;;4944013;28;19930;-66
2021/03/08 08:03:04;;;;;;;;;;;;;;;;;;4931210;29;19986;-67
2021/03/08 08:05:32;;;;;;;;;;;;;;;;;;4932672;29;19946;-66
2021/03/08 08:07:59;;;;;;;;;;;;;;;;;;4934896;28;19973;-65
2021/03/08 08:10:27;;;;;;;;;;;;;;;;;;4954816;28;20645;-66
2021/03/08 08:12:54;;;;;;;;;;;;;;;;;;4950174;28;19934;-65
2021/03/08 08:15:22;;;;;;;;;;;;;;;;;;4949807;29;19930;-66
2021/03/08 08:17:49;;;;;;;;;;;;;;;;;;4947410;28;19930;-66
2021/03/08 08:20:16;;;;;;;;;;;;;;;;;;4937144;28;19930;-66
2021/03/08 08:22:44;;;;;;;;;;;;;;;;;;4959319;28;20334;-66
2021/03/08 08:25:11;;;;;;;;;;;;;;;;;;4959046;28;20316;-66
2021/03/08 08:27:39;;;;;;;;;;;;;;;;;;4953192;28;19978;-66
2021/03/08 08:30:06;;;;;;;;;;;;;;;;;;4949247;28;20017;-66
2021/03/08 08:32:34;;;;;;;;;;;;;;;;;;4954834;28;19930;-66
2021/03/08 08:35:06;;;;;;;;;;;;;;;;;;4953252;28;19926;-66
2021/03/08 08:37:34;;;;;;;;;;;;;;;;;;4949556;28;19930;-67
2021/03/08 08:40:01;;;;;;;;;;;;;;;;;;4949898;28;19977;-66
2021/03/08 08:42:29;;;;;;;;;;;;;;;;;;4940574;28;19965;-66
2021/03/08 08:44:57;;;;;;;;;;;;;;;;;;4955521;28;20272;-66
2021/03/08 08:47:24;;;;;;;;;;;;;;;;;;4942885;28;19970;-67
2021/03/08 08:49:53;;;;;;;;;;;;;;;;;;4937390;28;19985;-68
2021/03/08 08:52:22;;;;;;;;;;;;;;;;;;4950800;28;19958;-67
2021/03/08 08:54:50;;;;;;;;;;;;;;;;;;4944949;28;19931;-67
2021/03/08 08:57:20;;;;;;;;;;;;;;;;;;4943375;28;19937;-68
2021/03/08 08:59:51;;;;;;;;;;;;;;;;;;4947094;28;19930;-67
2021/03/08 09:02:21;;;;;;;;;;;;;;;;;;4950999;28;19930;-68
2021/03/08 09:04:49;;;;;;;;;;;;;;;;;;4949300;28;20384;-67
2021/03/08 09:07:17;;;;;;;;;;;;;;;;;;4948228;28;19930;-66
2021/03/08 09:09:45;;;;;;;;;;;;;;;;;;4952875;28;19937;-67
2021/03/08 09:12:33;;;;;;;;;;;;;;;;;;4950796;28;19937;-67
2021/03/08 09:15:01;;;;;;;;;;;;;;;;;;4945706;28;19931;-67
2021/03/08 09:17:32;;;;;;;;;;;;;;;;;;4963501;28;20341;-67
2021/03/08 09:20:00;;;;;;;;;;;;;;;;;;4965849;28;20404;-67
2021/03/08 09:22:28;;;;;;;;;;;;;;;;;;4948764;28;19927;-67
2021/03/08 09:24:56;;;;;;;;;;;;;;;;;;4950889;28;20338;-67
2021/03/08 09:27:23;;;;;;;;;;;;;;;;;;4949703;28;20288;-69
2021/03/08 09:29:51;;;;;;;;;;;;;;;;;;4947888;28;19930;-67
2021/03/08 09:32:18;;;;;;;;;;;;;;;;;;4952232;28;19970;-67
2021/03/08 09:34:46;;;;;;;;;;;;;;;;;;4959449;28;20127;-67
2021/03/08 09:37:13;;;;;;;;;;;;;;;;;;4948233;28;19931;-67
2021/03/08 09:39:41;;;;;;;;;;;;;;;;;;4950365;28;20029;-68
2021/03/08 09:42:09;;;;;;;;;;;;;;;;;;4938240;28;19981;-67
2021/03/08 09:44:36;;;;;;;;;;;;;;;;;;4944127;28;20050;-66
2021/03/08 09:47:04;;;;;;;;;;;;;;;;;;4938924;28;19941;-68
2021/03/08 09:49:31;;;;;;;;;;;;;;;;;;4945915;28;20310;-67
2021/03/08 09:51:59;;;;;;;;;;;;;;;;;;4961286;28;20033;-68
2021/03/08 09:54:27;;;;;;;;;;;;;;;;;;4953906;28;19945;-68
2021/03/08 09:56:55;;;;;;;;;;;;;;;;;;4950418;28;19930;-67
2021/03/08 09:59:22;;;;;;;;;;;;;;;;;;4946261;28;20219;-67
2021/03/08 10:01:50;;;;;;;;;;;;;;;;;;4944225;28;19982;-68
2021/03/08 10:04:18;;;;;;;;;;;;;;;;;;4945761;28;20443;-67
2021/03/08 10:06:46;;;;;;;;;;;;;;;;;;4946399;28;19935;-68
2021/03/08 10:09:14;;;;;;;;;;;;;;;;;;4950079;28;20268;-67
2021/03/08 10:11:41;;;;;;;;;;;;;;;;;;4960544;28;19969;-67
2021/03/08 10:14:09;;;;;;;;;;;;;;;;;;4946111;28;20020;-68
2021/03/08 10:16:36;;;;;;;;;;;;;;;;;;4961927;28;20021;-68
2021/03/08 10:19:04;;;;;;;;;;;;;;;;;;4953232;28;19930;-68
2021/03/08 10:21:32;;;;;;;;;;;;;;;;;;4949157;28;19988;-68
2021/03/08 10:23:59;;;;;;;;;;;;;;;;;;4946666;28;19934;-67
2021/03/08 10:26:27;;;;;;;;;;;;;;;;;;4943913;29;20306;-68
2021/03/08 10:28:55;;;;;;;;;;;;;;;;;;4956819;28;19962;-67
2021/03/08 10:31:23;;;;;;;;;;;;;;;;;;4951651;28;20024;-68
2021/03/08 10:33:50;;;;;;;;;;;;;;;;;;4954682;28;19930;-67
2021/03/08 10:36:18;;;;;;;;;;;;;;;;;;4953238;28;19934;-68
2021/03/08 10:38:46;;;;;;;;;;;;;;;;;;4951216;28;19945;-68
2021/03/08 10:41:13;;;;;;;;;;;;;;;;;;4949928;28;19936;-68
2021/03/08 10:43:41;;;;;;;;;;;;;;;;;;4945199;28;19965;-68
2021/03/08 10:46:08;;;;;;;;;;;;;;;;;;4948213;28;20072;-67
2021/03/08 10:48:35;;;;;;;;;;;;;;;;;;4948356;28;19974;-67
2021/03/08 10:51:03;;;;;;;;;;;;;;;;;;4939432;28;20413;-67
2021/03/08 10:53:39;;;;;;;;;;;;;;;;;;4945275;28;19953;-67
2021/03/08 10:56:07;;;;;;;;;;;;;;;;;;4945343;28;19990;-67
2021/03/08 10:58:34;;;;;;;;;;;;;;;;;;4946172;28;19937;-68
2021/03/08 11:01:02;;;;;;;;;;;;;;;;;;4941689;29;19941;-67
2021/03/08 11:03:30;;;;;;;;;;;;;;;;;;4953219;28;20113;-67
2021/03/08 11:05:57;;;;;;;;;;;;;;;;;;4962228;28;19937;-68
2021/03/08 11:08:25;;;;;;;;;;;;;;;;;;4944143;28;19930;-68
2021/03/08 11:10:53;;;;;;;;;;;;;;;;;;4945996;28;19926;-67
2021/03/08 11:13:20;;;;;;;;;;;;;;;;;;4932227;28;19930;-67
2021/03/08 11:15:47;;;;;;;;;;;;;;;;;;4954760;28;19985;-67
2021/03/08 11:18:15;;;;;;;;;;;;;;;;;;4964042;28;20448;-67
2021/03/08 11:20:42;;;;;;;;;;;;;;;;;;4950783;28;19943;-67
2021/03/08 11:23:10;;;;;;;;;;;;;;;;;;4945090;28;20013;-67
2021/03/08 11:25:37;;;;;;;;;;;;;;;;;;4944020;28;19959;-65
2021/03/08 11:28:04;;;;;;;;;;;;;;;;;;4954331;28;19980;-65
2021/03/08 11:30:32;;;;;;;;;;;;;;;;;;4947993;28;19936;-66
2021/03/08 11:32:59;;;;;;;;;;;;;;;;;;4948523;28;19933;-66
2021/03/08 11:35:26;;;;;;;;;;;;;;;;;;4949943;28;19934;-65
2021/03/08 11:37:54;;;;;;;;;;;;;;;;;;4943941;28;19930;-66
2021/03/08 11:40:22;;;;;;;;;;;;;;;;;;4945327;28;19977;-68
2021/03/08 11:42:49;;;;;;;;;;;;;;;;;;4949996;28;20017;-66
2021/03/08 11:45:16;;;;;;;;;;;;;;;;;;4947629;28;20359;-66
2021/03/08 11:47:44;;;;;;;;;;;;;;;;;;4946569;28;19930;-67
2021/03/08 11:50:11;;;;;;;;;;;;;;;;;;4962692;28;20037;-66
2021/03/08 11:52:38;;;;;;;;;;;;;;;;;;4948926;28;19931;-67
2021/03/08 11:55:06;;;;;;;;;;;;;;;;;;4949373;29;19934;-66
2021/03/08 11:57:33;;;;;;;;;;;;;;;;;;4948294;28;19934;-67
2021/03/08 12:00:01;;;;;;;;;;;;;;;;;;4949730;28;20229;-67
2021/03/08 12:02:30;;;;;;;;;;;;;;;;;;4947530;28;19946;-66
2021/03/08 12:04:57;;;;;;;;;;;;;;;;;;4928332;29;19959;-66
2021/03/08 12:07:25;;;;;;;;;;;;;;;;;;4937544;29;19930;-68
2021/03/08 12:09:52;;;;;;;;;;;;;;;;;;4923002;29;19938;-66
2021/03/08 12:12:20;;;;;;;;;;;;;;;;;;4916688;29;20113;-67
2021/03/08 12:14:48;;;;;;;;;;;;;;;;;;4916404;29;20405;-67
2021/03/08 12:17:15;;;;;;;;;;;;;;;;;;4915351;29;19931;-66
2021/03/08 12:19:47;;;;;;;;;;;;;;;;;;4929173;29;19930;-67
2021/03/08 12:22:14;;;;;;;;;;;;;;;;;;4923635;29;20464;-68
2021/03/08 12:24:41;;;;;;;;;;;;;;;;;;4915270;29;20312;-67
2021/03/08 12:27:09;;;;;;;;;;;;;;;;;;4911251;29;20031;-67
2021/03/08 12:29:36;;;;;;;;;;;;;;;;;;4918291;29;20045;-67
2021/03/08 12:32:04;;;;;;;;;;;;;;;;;;4938361;29;19930;-67
2021/03/08 12:34:31;;;;;;;;;;;;;;;;;;4927642;29;19931;-67
2021/03/08 12:36:58;;;;;;;;;;;;;;;;;;4914733;29;20365;-67
2021/03/08 12:39:26;;;;;;;;;;;;;;;;;;4921857;29;20042;-66
2021/03/08 12:41:54;;;;;;;;;;;;;;;;;;4928422;29;20220;-69
2021/03/08 12:44:23;;;;;;;;;;;;;;;;;;4922099;29;20229;-67
2021/03/08 12:46:50;;;;;;;;;;;;;;;;;;4931195;29;20425;-67
2021/03/08 12:49:18;;;;;;;;;;;;;;;;;;4942247;29;19938;-67
2021/03/08 12:51:47;;;;;;;;;;;;;;;;;;4935210;28;19938;-70
2021/03/08 12:54:14;;;;;;;;;;;;;;;;;;4929043;29;19931;-67
2021/03/08 12:56:42;;;;;;;;;;;;;;;;;;4918216;29;20431;-67
2021/03/08 12:59:09;;;;;;;;;;;;;;;;;;4924985;29;19931;-68
2021/03/08 13:01:36;;;;;;;;;;;;;;;;;;4913538;29;20399;-67
2021/03/08 13:04:04;;;;;;;;;;;;;;;;;;4954068;28;19937;-70
2021/03/08 13:06:31;;;;;;;;;;;;;;;;;;4955179;28;20045;-69
2021/03/08 13:09:04;;;;;;;;;;;;;;;;;;4957683;28;20331;-68
2021/03/08 13:11:32;;;;;;;;;;;;;;;;;;4952720;28;20417;-67
2021/03/08 13:14:01;;;;;;;;;;;;;;;;;;4956109;28;20461;-66
2021/03/08 13:16:29;;;;;;;;;;;;;;;;;;4957266;28;19935;-68
2021/03/08 13:18:57;;;;;;;;;;;;;;;;;;4965334;28;19938;-67
2021/03/08 13:21:24;;;;;;;;;;;;;;;;;;4949584;28;20374;-68
2021/03/08 13:23:51;;;;;;;;;;;;;;;;;;4947906;28;19931;-67
2021/03/08 13:26:19;;;;;;;;;;;;;;;;;;4943587;28;20304;-67
2021/03/08 13:28:46;;;;;;;;;;;;;;;;;;4947068;28;19935;-67
2021/03/08 13:31:14;;;;;;;;;;;;;;;;;;4939646;28;19997;-68
2021/03/08 13:33:42;;;;;;;;;;;;;;;;;;4944959;28;19937;-67
2021/03/08 13:36:10;;;;;;;;;;;;;;;;;;4945761;28;19930;-68
2021/03/08 13:38:38;;;;;;;;;;;;;;;;;;4957326;28;19994;-67
2021/03/08 13:41:06;;;;;;;;;;;;;;;;;;4959965;28;19927;-68
2021/03/08 13:43:33;;;;;;;;;;;;;;;;;;4948036;28;20017;-68
2021/03/08 13:46:01;;;;;;;;;;;;;;;;;;4945487;28;19930;-67
2021/03/08 13:48:30;;;;;;;;;;;;;;;;;;4952597;28;19934;-69
2021/03/08 13:50:58;;;;;;;;;;;;;;;;;;4956977;28;19952;-67
2021/03/08 13:53:25;;;;;;;;;;;;;;;;;;4951129;28;20307;-67
2021/03/08 13:55:53;;;;;;;;;;;;;;;;;;4942939;28;19930;-69
2021/03/08 13:58:20;;;;;;;;;;;;;;;;;;4955211;28;19985;-67
2021/03/08 14:00:48;;;;;;;;;;;;;;;;;;4946595;28;20296;-69
2021/03/08 14:03:15;;;;;;;;;;;;;;;;;;4940369;28;20026;-67
2021/03/08 14:05:43;;;;;;;;;;;;;;;;;;4925655;29;20297;-68
2021/03/08 14:08:11;;;;;;;;;;;;;;;;;;4925959;29;20242;-67
2021/03/08 14:10:38;;;;;;;;;;;;;;;;;;4926455;29;20025;-67
2021/03/08 14:13:06;;;;;;;;;;;;;;;;;;4928445;29;19930;-68
2021/03/08 14:15:34;;;;;;;;;;;;;;;;;;4918436;29;20026;-67
2021/03/08 14:18:02;;;;;;;;;;;;;;;;;;4928979;29;20021;-69
2021/03/08 14:20:29;;;;;;;;;;;;;;;;;;4928403;29;19930;-68
2021/03/08 14:22:57;;;;;;;;;;;;;;;;;;4929036;29;20037;-69
2021/03/08 14:25:32;;;;;;;;;;;;;;;;;;5109446;27;19920;-69
2021/03/08 14:28:00;;;;;;;;;;;;;;;;;;5094281;27;20295;-67
2021/03/08 14:30:28;;;;;;;;;;;;;;;;;;5063916;28;20002;-67
2021/03/08 14:32:58;;;;;;;;;;;;;;;;;;5054099;28;19968;-67
2021/03/08 14:35:45;;;;;;;;;;;;;;;;;;5062556;28;20033;-66
2021/03/08 14:38:12;;;;;;;;;;;;;;;;;;5056239;28;19929;-68
2021/03/08 14:40:40;;;;;;;;;;;;;;;;;;5043492;28;19936;-66
2021/03/08 14:43:08;;;;;;;;;;;;;;;;;;5042578;28;19929;-68
2021/03/08 14:45:35;;;;;;;;;;;;;;;;;;5042121;28;20507;-70
2021/03/08 14:48:02;;;;;;;;;;;;;;;;;;5041088;28;19978;-69
2021/03/08 14:50:30;;;;;;;;;;;;;;;;;;5041273;28;20116;-66
2021/03/08 14:52:57;;;;;;;;;;;;;;;;;;5042492;28;19925;-69
2021/03/08 14:55:26;;;;;;;;;;;;;;;;;;5041663;28;19935;-66
2021/03/08 14:57:54;;;;;;;;;;;;;;;;;;5044168;28;19948;-66
2021/03/08 15:00:22;;;;;;;;;;;;;;;;;;5042517;28;19924;-66
2021/03/08 15:02:49;;;;;;;;;;;;;;;;;;5051353;28;19940;-66
2021/03/08 15:05:17;;;;;;;;;;;;;;;;;;5066605;28;19936;-66
2021/03/08 15:07:44;;;;;;;;;;;;;;;;;;5064382;28;19933;-67
2021/03/08 15:10:12;;;;;;;;;;;;;;;;;;5053712;28;19925;-66
2021/03/08 15:12:39;;;;;;;;;;;;;;;;;;5058689;28;20023;-66
2021/03/08 15:15:07;;;;;;;;;;;;;;;;;;5057395;28;20011;-65
2021/03/08 15:17:34;;;;;;;;;;;;;;;;;;5061217;28;20332;-66
2021/03/08 15:20:02;;;;;;;;;;;;;;;;;;5061712;28;20235;-66
2021/03/08 15:22:29;;;;;;;;;;;;;;;;;;5058214;28;20038;-67
2021/03/08 15:24:56;;;;;;;;;;;;;;;;;;5049374;28;20063;-66
2021/03/08 15:27:24;;;;;;;;;;;;;;;;;;5052890;28;19933;-66
2021/03/08 15:29:51;;;;;;;;;;;;;;;;;;5062781;28;19929;-66
2021/03/08 15:32:19;;;;;;;;;;;;;;;;;;5063239;28;19932;-66
2021/03/08 15:34:47;;;;;;;;;;;;;;;;;;5063089;28;19929;-66
2021/03/08 15:37:14;;;;;;;;;;;;;;;;;;5045001;28;19933;-66
2021/03/08 15:39:41;;;;;;;;;;;;;;;;;;5048689;28;19971;-67
2021/03/08 15:42:09;;;;;;;;;;;;;;;;;;5050985;28;20444;-66
2021/03/08 15:44:36;;;;;;;;;;;;;;;;;;5044518;28;19986;-66
2021/03/08 15:47:05;;;;;;;;;;;;;;;;;;5050040;28;19924;-66
2021/03/08 15:49:53;;;;;;;;;;;;;;;;;;5057747;28;19925;-65
2021/03/08 15:52:21;;;;;;;;;;;;;;;;;;5046089;28;19933;-65
2021/03/08 15:54:49;;;;;;;;;;;;;;;;;;5049959;28;20002;-65
2021/03/08 15:57:16;;;;;;;;;;;;;;;;;;5049969;28;19929;-66
2021/03/08 15:59:44;;;;;;;;;;;;;;;;;;5048338;28;20364;-66
2021/03/08 16:02:12;;;;;;;;;;;;;;;;;;5049315;28;19925;-65
2021/03/08 16:04:40;;;;;;;;;;;;;;;;;;5036932;28;20387;-66
2021/03/08 16:07:08;;;;;;;;;;;;;;;;;;5045598;28;20011;-68
2021/03/08 16:09:42;;;;;;;;;;;;;;;;;;5036799;28;19932;-66
2021/03/08 16:12:13;;;;;;;;;;;;;;;;;;5028405;28;19939;-66
2021/03/08 16:14:40;;;;;;;;;;;;;;;;;;5018722;28;20396;-69
2021/03/08 16:17:28;;;;;;;;;;;;;;;;;;5031677;28;19972;-67
2021/03/08 16:19:56;;;;;;;;;;;;;;;;;;5041172;28;19925;-66
2021/03/08 16:22:23;;;;;;;;;;;;;;;;;;5043290;28;19929;-66
2021/03/08 16:24:50;;;;;;;;;;;;;;;;;;5043897;28;20011;-68
2021/03/08 16:27:18;;;;;;;;;;;;;;;;;;5040117;28;20141;-67
2021/03/08 16:29:45;;;;;;;;;;;;;;;;;;5028861;28;20030;-66
2021/03/08 16:32:13;;;;;;;;;;;;;;;;;;5027683;28;20283;-66
2021/03/08 16:34:41;;;;;;;;;;;;;;;;;;5023125;28;19993;-67
2021/03/08 16:37:14;;;;;;;;;;;;;;;;;;5027683;28;20032;-67
2021/03/08 16:39:41;;;;;;;;;;;;;;;;;;5035892;28;19986;-68
2021/03/08 16:42:09;;;;;;;;;;;;;;;;;;5028626;28;20032;-67
2021/03/08 16:44:36;;;;;;;;;;;;;;;;;;5018652;28;19936;-68
2021/03/08 16:47:05;;;;;;;;;;;;;;;;;;5021080;28;21048;-67
2021/03/08 16:49:32;;;;;;;;;;;;;;;;;;5036613;28;20399;-69